createdAt,value
2022-08-07T00:01:43.951Z,5.90
2022-08-07T00:04:24.409Z,5.80
2022-08-07T00:06:53.079Z,6.10
2022-08-07T00:09:22.352Z,6.20
2022-08-07T00:11:55.648Z,6.50
2022-08-07T00:14:31.194Z,6.70
2022-08-07T00:17:01.879Z,5.90
2022-08-07T00:20:00.581Z,5.30
2022-08-07T00:23:34.293Z,5.70
2022-08-07T00:26:18.506Z,5.30
2022-08-07T00:28:59.275Z,5.20
2022-08-07T00:31:38.092Z,5.80
2022-08-07T00:34:10.147Z,5.40
2022-08-07T00:36:43.278Z,5.40
2022-08-07T00:39:16.963Z,5.60
2022-08-07T00:42:02.008Z,5.80
2022-08-07T00:44:41.297Z,5.80
2022-08-07T00:48:08.328Z,5.70
2022-08-07T00:50:19.096Z,7.10
2022-08-07T00:52:57.008Z,7.40
2022-08-07T00:56:00.390Z,8.80
2022-08-07T00:58:15.055Z,8.70
2022-08-07T01:00:53.897Z,9.00
2022-08-07T01:03:55.864Z,8.90
2022-08-07T01:06:12.340Z,8.50
2022-08-07T01:08:43.204Z,9.90
2022-08-07T01:12:11.076Z,9.00
2022-08-07T01:14:11.072Z,8.90
2022-08-07T01:16:43.095Z,8.50
2022-08-07T01:19:18.922Z,7.70
2022-08-07T01:21:53.434Z,8.50
2022-08-07T01:24:27.828Z,8.80
2022-08-07T01:27:00.217Z,10.00
2022-08-07T01:32:24.487Z,13.90
2022-08-07T01:34:55.931Z,13.80
2022-08-07T01:37:26.988Z,13.60
2022-08-07T01:40:02.416Z,14.60
2022-08-07T01:42:39.737Z,15.00
2022-08-07T01:45:22.904Z,14.50
2022-08-07T01:48:20.253Z,14.10
2022-08-07T01:52:01.546Z,12.20
2022-08-07T01:54:33.162Z,11.50
2022-08-07T01:57:30.541Z,11.50
2022-08-07T02:00:13.357Z,11.20
2022-08-07T02:03:18.088Z,11.20
2022-08-07T02:06:02.363Z,11.00
2022-08-07T02:08:42.359Z,11.10
2022-08-07T02:11:30.721Z,10.90
2022-08-07T02:14:04.809Z,10.80
2022-08-07T02:16:37.534Z,11.00
2022-08-07T02:20:05.206Z,9.80
2022-08-07T02:22:02.784Z,10.90
2022-08-07T02:24:32.132Z,9.80
2022-08-07T02:27:03.645Z,10.10
2022-08-07T02:29:43.587Z,10.30
2022-08-07T02:32:23.520Z,10.00
2022-08-07T02:34:58.315Z,10.10
2022-08-07T02:37:34.248Z,9.80
2022-08-07T02:40:29.846Z,9.40
2022-08-07T02:42:59.162Z,9.60
2022-08-07T02:48:17.692Z,9.50
2022-08-07T02:50:51.203Z,9.00
2022-08-07T02:53:27.433Z,9.00
2022-08-07T02:56:04.076Z,9.40
2022-08-07T02:58:35.465Z,9.10
2022-08-07T03:01:16.047Z,8.90
2022-08-07T03:03:50.879Z,8.70
2022-08-07T03:09:43.823Z,8.50
2022-08-07T03:12:21.836Z,8.10
2022-08-07T03:16:27.857Z,8.50
2022-08-07T03:18:59.578Z,8.10
2022-08-07T03:21:33.105Z,7.90
2022-08-07T03:24:18.132Z,8.20
2022-08-07T03:26:58.763Z,7.90
2022-08-07T03:29:37.814Z,8.30
2022-08-07T03:32:13.327Z,8.40
2022-08-07T03:35:16.746Z,8.20
2022-08-07T03:37:46.531Z,8.10
2022-08-07T03:40:30.914Z,8.80
2022-08-07T03:43:10.100Z,8.10
2022-08-07T03:45:47.612Z,8.30
2022-08-07T03:49:01.916Z,9.10
2022-08-07T03:51:31.051Z,8.80
2022-08-07T03:54:35.809Z,9.10
2022-08-07T04:00:56.980Z,8.60
2022-08-07T04:03:28.659Z,8.60
2022-08-07T04:06:37.516Z,8.20
2022-08-07T04:09:08.375Z,9.00
2022-08-07T04:12:21.346Z,8.90
2022-08-07T04:14:43.879Z,8.90
2022-08-07T04:17:20.884Z,9.10
2022-08-07T04:19:55.744Z,8.90
2022-08-07T04:22:53.346Z,9.40
2022-08-07T04:25:39.230Z,9.10
2022-08-07T04:28:24.467Z,9.70
2022-08-07T04:30:56.824Z,9.80
2022-08-07T04:33:33.625Z,8.80
2022-08-07T04:36:36.149Z,9.40
2022-08-07T04:39:53.179Z,9.70
2022-08-07T04:42:35.701Z,9.30
2022-08-07T04:45:08.117Z,8.80
2022-08-07T04:48:10.155Z,9.10
2022-08-07T04:50:53.967Z,9.10
2022-08-07T04:54:01.967Z,8.70
2022-08-07T04:58:15.071Z,8.90
2022-08-07T05:00:11.306Z,8.10
2022-08-07T05:02:53.850Z,8.40
2022-08-07T05:06:01.187Z,8.30
2022-08-07T05:09:01.957Z,8.40
2022-08-07T05:11:57.951Z,8.00
2022-08-07T05:14:53.976Z,9.00
2022-08-07T05:17:52.638Z,9.10
2022-08-07T05:21:02.491Z,9.50
2022-08-07T05:23:55.545Z,9.20
2022-08-07T05:26:28.287Z,8.70
2022-08-07T05:29:05.206Z,9.00
2022-08-07T05:31:39.535Z,9.60
2022-08-07T05:34:14.973Z,9.40
2022-08-07T05:38:08.411Z,9.40
2022-08-07T05:40:50.374Z,8.90
2022-08-07T05:43:43.390Z,8.70
2022-08-07T05:46:10.434Z,9.40
2022-08-07T05:48:59.118Z,8.60
2022-08-07T05:51:31.773Z,9.90
2022-08-07T05:54:13.677Z,10.00
2022-08-07T05:56:59.280Z,9.40
2022-08-07T05:59:57.359Z,9.40
2022-08-07T06:02:32.071Z,8.20
2022-08-07T06:05:15.730Z,8.70
2022-08-07T06:08:13.960Z,7.90
2022-08-07T06:10:39.068Z,7.90
2022-08-07T06:13:13.433Z,7.10
2022-08-07T06:15:43.626Z,8.70
2022-08-07T06:18:18.942Z,7.50
2022-08-07T06:20:50.903Z,7.80
2022-08-07T06:24:38.779Z,7.30
2022-08-07T06:29:13.768Z,7.80
2022-08-07T06:31:50.191Z,7.80
2022-08-07T06:34:29.623Z,7.70
2022-08-07T06:37:17.019Z,7.60
2022-08-07T06:40:16.465Z,7.10
2022-08-07T06:42:42.550Z,7.90
2022-08-07T06:45:26.550Z,7.30
2022-08-07T06:47:59.309Z,7.60
2022-08-07T06:50:36.254Z,6.80
2022-08-07T06:53:18.632Z,7.40
2022-08-07T06:56:02.163Z,7.40
2022-08-07T06:58:35.796Z,7.60
2022-08-07T07:01:14.408Z,8.00
2022-08-07T07:17:50.649Z,6.60
2022-08-07T07:20:35.688Z,6.00
2022-08-07T07:24:11.242Z,6.30
2022-08-07T07:26:35.897Z,6.10
2022-08-07T07:29:28.475Z,6.10
2022-08-07T07:31:55.671Z,5.90
2022-08-07T07:34:30.960Z,5.70
2022-08-07T07:37:05.598Z,6.00
2022-08-07T07:39:55.600Z,5.30
2022-08-07T07:42:32.834Z,5.80
2022-08-07T07:45:06.449Z,5.60
2022-08-07T07:47:42.929Z,5.90
2022-08-07T07:50:33.020Z,5.30
2022-08-07T07:53:20.188Z,5.20
2022-08-07T07:56:01.022Z,5.30
2022-08-07T07:58:41.173Z,5.60
2022-08-07T08:02:01.572Z,6.00
2022-08-07T08:04:12.186Z,5.50
2022-08-07T08:06:50.975Z,5.60
2022-08-07T08:09:29.997Z,5.90
2022-08-07T08:12:02.487Z,6.10
2022-08-07T08:14:36.484Z,5.80
2022-08-07T08:17:58.112Z,5.60
2022-08-07T08:20:27.408Z,6.10
2022-08-07T08:23:20.882Z,5.50
2022-08-07T08:26:23.601Z,5.90
2022-08-07T08:28:56.995Z,6.00
2022-08-07T08:32:17.238Z,5.50
2022-08-07T08:34:34.000Z,5.70
2022-08-07T08:37:09.938Z,5.70
2022-08-07T08:39:58.483Z,5.80
2022-08-07T08:42:54.982Z,5.30
2022-08-07T08:45:41.497Z,5.60
2022-08-07T08:48:28.461Z,5.50
2022-08-07T08:51:14.571Z,5.20
2022-08-07T08:54:15.896Z,5.70
2022-08-07T08:56:50.320Z,5.70
2022-08-07T08:59:41.967Z,5.20
2022-08-07T09:02:42.139Z,5.00
2022-08-07T09:05:36.674Z,5.60
2022-08-07T09:08:18.033Z,5.20
2022-08-07T09:11:09.824Z,5.20
2022-08-07T09:14:03.249Z,5.30
2022-08-07T09:16:43.372Z,5.30
2022-08-07T09:19:51.473Z,5.10
2022-08-07T09:24:29.451Z,4.90
2022-08-07T09:25:18.154Z,5.20
2022-08-07T09:29:24.452Z,5.30
2022-08-07T09:31:08.674Z,5.50
2022-08-07T09:33:57.287Z,5.30
2022-08-07T09:39:55.024Z,5.40
2022-08-07T09:42:25.530Z,5.90
2022-08-07T09:47:54.990Z,5.50
2022-08-07T09:48:02.950Z,5.20
2022-08-07T09:51:05.518Z,5.30
2022-08-07T09:54:05.206Z,5.40
2022-08-07T09:57:28.004Z,5.10
2022-08-07T10:00:14.728Z,5.40
2022-08-07T10:04:06.191Z,5.00
2022-08-07T10:06:36.927Z,5.10
2022-08-07T10:09:59.000Z,5.40
2022-08-07T10:12:55.798Z,5.50
2022-08-07T10:16:02.418Z,5.20
2022-08-07T10:18:54.891Z,5.40
2022-08-07T10:22:12.331Z,5.20
2022-08-07T10:25:20.965Z,5.40
2022-08-07T10:28:05.176Z,5.40
2022-08-07T10:30:42.976Z,5.00
2022-08-07T10:34:05.833Z,5.00
2022-08-07T10:36:54.277Z,5.50
2022-08-07T10:39:41.974Z,5.40
2022-08-07T10:42:46.180Z,5.20
2022-08-07T10:45:45.056Z,6.90
2022-08-07T10:48:35.681Z,8.20
2022-08-07T10:51:39.456Z,6.70
2022-08-07T10:54:18.737Z,5.80
2022-08-07T10:56:58.920Z,5.30
2022-08-07T10:59:50.672Z,5.20
2022-08-07T11:02:34.028Z,5.00
2022-08-07T11:05:24.262Z,4.80
2022-08-07T11:08:11.751Z,4.90
2022-08-07T11:11:03.560Z,4.90
2022-08-07T11:14:45.907Z,5.60
2022-08-07T11:16:46.958Z,5.10
2022-08-07T11:19:47.226Z,5.30
2022-08-07T11:22:32.494Z,4.80
2022-08-07T11:25:14.817Z,4.50
2022-08-07T11:28:02.466Z,4.80
2022-08-07T11:30:52.675Z,4.70
2022-08-07T11:33:59.909Z,4.40
2022-08-07T11:36:31.974Z,4.80
2022-08-07T11:39:59.303Z,4.50
2022-08-07T11:42:30.398Z,4.50
2022-08-07T11:45:35.512Z,4.70
2022-08-07T11:49:27.409Z,5.20
2022-08-07T11:51:46.896Z,5.00
2022-08-07T11:54:27.581Z,4.50
2022-08-07T11:57:18.919Z,4.60
2022-08-07T12:00:11.340Z,5.20
2022-08-07T12:03:05.022Z,4.70
2022-08-07T12:06:36.987Z,4.80
2022-08-07T12:09:16.806Z,4.60
2022-08-07T12:12:12.140Z,4.70
2022-08-07T12:15:01.876Z,5.20
2022-08-07T12:17:59.412Z,5.00
2022-08-07T12:20:36.423Z,4.60
2022-08-07T12:24:05.589Z,4.80
2022-08-07T12:26:29.727Z,4.70
2022-08-07T12:29:37.730Z,4.90
2022-08-07T12:32:40.584Z,4.90
2022-08-07T12:35:14.067Z,4.70
2022-08-07T12:38:10.202Z,4.70
2022-08-07T12:40:48.566Z,4.40
2022-08-07T12:44:03.921Z,4.70
2022-08-07T12:46:48.926Z,4.40
2022-08-07T12:49:44.790Z,4.80
2022-08-07T12:52:35.319Z,4.20
2022-08-07T12:55:41.465Z,4.40
2022-08-07T12:58:18.123Z,5.30
2022-08-07T13:01:07.778Z,5.10
2022-08-07T13:03:54.662Z,5.10
2022-08-07T13:07:01.963Z,4.80
2022-08-07T13:10:20.079Z,4.60
2022-08-07T13:13:48.559Z,5.10
2022-08-07T13:19:59.805Z,4.90
2022-08-07T13:22:53.320Z,5.60
2022-08-07T13:25:39.632Z,7.00
2022-08-07T13:28:23.991Z,5.60
2022-08-07T13:31:06.369Z,7.70
2022-08-07T13:34:34.325Z,6.40
2022-08-07T13:37:19.575Z,6.30
2022-08-07T13:40:36.818Z,6.80
2022-08-07T13:43:01.844Z,5.90
2022-08-07T13:46:11.284Z,6.60
2022-08-07T13:48:34.716Z,6.10
2022-08-07T13:51:28.142Z,5.40
2022-08-07T13:54:03.056Z,5.40
2022-08-07T13:56:36.312Z,5.30
2022-08-07T13:59:21.114Z,5.30
2022-08-07T14:02:03.692Z,5.20
2022-08-07T14:04:49.016Z,4.90
2022-08-07T14:07:23.058Z,5.00
2022-08-07T14:10:12.265Z,5.50
2022-08-07T14:12:49.463Z,6.10
2022-08-07T14:18:27.668Z,6.70
2022-08-07T14:22:02.904Z,6.20
2022-08-07T14:24:33.637Z,6.80
2022-08-07T14:27:16.087Z,11.60
2022-08-07T14:30:10.416Z,10.00
2022-08-07T14:35:45.327Z,6.60
2022-08-07T14:38:24.796Z,6.20
2022-08-07T14:41:04.362Z,6.50
2022-08-07T14:43:59.067Z,7.50
2022-08-07T14:46:33.437Z,9.20
2022-08-07T14:49:17.280Z,6.90
2022-08-07T14:52:04.199Z,7.40
2022-08-07T14:54:42.114Z,6.00
2022-08-07T15:00:07.013Z,6.30
2022-08-07T15:02:39.618Z,6.00
2022-08-07T15:05:20.303Z,6.10
2022-08-07T15:07:55.390Z,5.80
2022-08-07T15:10:30.162Z,6.30
2022-08-07T15:13:05.647Z,6.30
2022-08-07T15:15:38.966Z,6.00
2022-08-07T15:18:29.518Z,6.90
2022-08-07T15:25:14.677Z,5.50
2022-08-07T15:27:04.333Z,5.50
2022-08-07T15:30:08.408Z,5.90
2022-08-07T15:32:39.175Z,5.50
2022-08-07T15:36:00.587Z,5.70
2022-08-07T15:38:30.161Z,5.30
2022-08-07T15:42:42.532Z,5.40
2022-08-07T15:44:01.481Z,5.20
2022-08-07T15:46:39.225Z,5.70
2022-08-07T15:49:25.645Z,5.50
2022-08-07T15:52:13.941Z,5.70
2022-08-07T15:54:48.378Z,5.00
2022-08-07T15:57:39.518Z,5.00
2022-08-07T16:00:31.469Z,4.90
2022-08-07T16:03:06.899Z,5.40
2022-08-07T16:05:57.282Z,5.10
2022-08-07T16:08:37.712Z,5.30
2022-08-07T16:11:40.095Z,5.40
2022-08-07T16:14:17.262Z,5.50
2022-08-07T16:18:02.394Z,5.30
2022-08-07T16:21:43.798Z,5.20
2022-08-07T16:23:58.575Z,5.00
2022-08-07T16:26:58.728Z,5.20
2022-08-07T16:30:10.356Z,5.00
2022-08-07T16:34:03.355Z,5.90
2022-08-07T16:37:02.548Z,5.50
2022-08-07T16:40:06.438Z,5.60
2022-08-07T16:42:46.077Z,5.70
2022-08-07T16:46:33.173Z,5.80
2022-08-07T16:50:13.756Z,5.90
2022-08-07T16:52:02.068Z,6.90
2022-08-07T16:54:57.924Z,5.40
2022-08-07T16:58:03.243Z,5.80
2022-08-07T17:01:01.047Z,5.90
2022-08-07T17:03:58.551Z,5.80
2022-08-07T17:06:46.499Z,6.20
2022-08-07T17:12:35.119Z,6.40
2022-08-07T17:15:43.644Z,6.90
2022-08-07T17:18:28.117Z,6.70
2022-08-07T17:20:56.637Z,6.60
2022-08-07T17:23:53.524Z,6.70
2022-08-07T17:30:14.632Z,6.60
2022-08-07T17:34:10.351Z,7.00
2022-08-07T17:36:20.420Z,6.40
2022-08-07T17:39:10.404Z,6.70
2022-08-07T17:42:07.017Z,6.60
2022-08-07T17:44:45.296Z,6.10
2022-08-07T17:47:38.280Z,6.70
2022-08-07T17:50:42.283Z,6.70
2022-08-07T17:54:05.979Z,7.80
2022-08-07T17:57:18.875Z,7.00
2022-08-07T17:59:53.932Z,6.70
2022-08-07T18:02:56.684Z,6.90
2022-08-07T18:06:02.319Z,6.20
2022-08-07T18:09:00.607Z,6.50
2022-08-07T18:12:30.319Z,6.60
2022-08-07T18:15:08.646Z,7.00
2022-08-07T18:18:46.314Z,6.40
2022-08-07T18:21:40.129Z,6.60
2022-08-07T18:24:09.259Z,6.10
2022-08-07T18:26:57.002Z,6.20
2022-08-07T18:30:31.972Z,6.00
2022-08-07T18:33:33.886Z,5.70
2022-08-07T18:36:32.901Z,6.30
2022-08-07T18:40:06.872Z,6.60
2022-08-07T18:42:29.034Z,5.90
2022-08-07T18:45:44.584Z,6.70
2022-08-07T18:49:03.677Z,6.40
2022-08-07T18:52:37.362Z,6.20
2022-08-07T18:54:54.875Z,5.80
2022-08-07T18:57:58.389Z,6.60
2022-08-07T19:02:06.853Z,5.80
2022-08-07T19:04:19.124Z,6.20
2022-08-07T19:07:11.287Z,6.30
2022-08-07T19:09:57.455Z,5.60
2022-08-07T19:12:49.000Z,5.60
2022-08-07T19:16:05.677Z,5.90
2022-08-07T19:18:44.671Z,5.90
2022-08-07T19:21:56.114Z,5.80
2022-08-07T19:24:43.217Z,6.00
2022-08-07T19:28:57.314Z,5.50
2022-08-07T19:31:00.217Z,5.70
2022-08-07T19:33:15.454Z,5.90
2022-08-07T19:35:57.476Z,5.70
2022-08-07T19:38:32.243Z,7.10
2022-08-07T19:41:03.296Z,6.60
2022-08-07T19:46:55.595Z,6.10
2022-08-07T19:49:57.962Z,6.60
2022-08-07T19:54:31.587Z,6.40
2022-08-07T19:56:13.585Z,6.40
2022-08-07T19:59:24.571Z,6.00
2022-08-07T20:02:19.767Z,6.30
2022-08-07T20:05:03.168Z,6.10
2022-08-07T20:08:10.436Z,6.00
2022-08-07T20:11:03.913Z,5.70
2022-08-07T20:13:49.915Z,6.30
2022-08-07T20:16:35.547Z,6.40
2022-08-07T20:21:58.320Z,6.50
2022-08-07T20:24:36.328Z,6.30
2022-08-07T20:27:15.295Z,6.60
2022-08-07T20:30:22.343Z,6.70
2022-08-07T20:32:55.236Z,7.30
2022-08-07T20:38:22.732Z,7.50
2022-08-07T20:41:03.905Z,7.50
2022-08-07T20:43:57.348Z,7.10
2022-08-07T20:46:43.909Z,7.40
2022-08-07T20:50:00.966Z,7.50
2022-08-07T20:52:14.223Z,7.70
2022-08-07T20:54:53.779Z,7.40
2022-08-07T20:57:30.014Z,7.80
2022-08-07T21:00:09.553Z,7.70
2022-08-07T21:03:00.953Z,7.40
2022-08-07T21:05:52.426Z,7.00
2022-08-07T21:09:13.671Z,7.80
2022-08-07T21:12:30.832Z,7.40
2022-08-07T21:15:09.872Z,8.20
2022-08-07T21:18:03.822Z,7.60
2022-08-07T21:20:56.259Z,7.60
2022-08-07T21:23:38.856Z,7.60
2022-08-07T21:26:39.538Z,8.00
2022-08-07T21:29:18.936Z,8.00
2022-08-07T21:32:47.248Z,8.00
2022-08-07T21:35:59.986Z,8.00
2022-08-07T21:38:56.304Z,8.00
2022-08-07T21:41:38.362Z,8.00
2022-08-07T21:44:50.934Z,7.70
2022-08-07T21:47:51.083Z,7.40
2022-08-07T21:50:32.857Z,7.40
2022-08-07T21:53:12.949Z,7.90
2022-08-07T21:55:48.596Z,8.40
2022-08-07T21:58:30.549Z,8.20
2022-08-07T22:01:14.355Z,8.20
2022-08-07T22:04:13.988Z,8.30
2022-08-07T22:07:06.915Z,7.40
2022-08-07T22:09:53.863Z,8.20
2022-08-07T22:12:59.173Z,8.00
2022-08-07T22:16:38.995Z,7.70
2022-08-07T22:18:46.304Z,8.80
2022-08-07T22:22:02.161Z,8.50
2022-08-07T22:25:07.530Z,8.10
2022-08-07T22:28:03.261Z,8.10
2022-08-07T22:30:57.344Z,7.60
2022-08-07T22:33:52.549Z,7.60
2022-08-07T22:36:57.913Z,7.90
2022-08-07T22:39:53.165Z,8.60
2022-08-07T22:42:30.612Z,7.70
2022-08-07T22:46:40.482Z,8.50
2022-08-07T22:49:01.305Z,8.50
2022-08-07T22:52:10.290Z,7.70
2022-08-07T22:55:22.534Z,8.20
2022-08-07T22:58:38.079Z,9.30
2022-08-07T23:01:50.913Z,8.60
2022-08-07T23:04:56.863Z,8.50
2022-08-07T23:07:41.839Z,8.10
2022-08-07T23:10:38.203Z,8.30
2022-08-07T23:14:09.171Z,7.40
2022-08-07T23:16:54.908Z,6.90
2022-08-07T23:20:13.579Z,7.90
2022-08-07T23:23:05.119Z,7.90
2022-08-07T23:26:06.042Z,7.40
2022-08-07T23:28:57.840Z,7.10
2022-08-07T23:34:18.617Z,7.00
2022-08-07T23:35:10.548Z,7.30
2022-08-07T23:38:19.066Z,6.80
2022-08-07T23:41:24.470Z,7.40
2022-08-07T23:44:53.973Z,7.20
2022-08-07T23:47:42.392Z,7.00
2022-08-07T23:50:29.758Z,6.80
2022-08-07T23:53:49.461Z,7.10
2022-08-07T23:56:35.106Z,6.50
